BAW75EV EGSS-LIBR
Flight info
| Callsign | BAW75EV |
|---|---|
| Flight time | 2h 20m |
| Altitude | 33000 |
| Route | CLN M84 KONAN UL607 KOK DCT CIV DCT SUTAL DCT GTQ DCT POGOL DCT LASAT DCT DEVDI DCT RIPUS DCT RESIA DCT BELOV DCT UTAME DCT UVOKA/N0385F190 L612 DOLON |
| Aircraft | A321/M-SDE3FGHIRWY/LB1 |
Departure
| Time | 2026-04-26 16:44 |
|---|---|
| Airport | London Stansted Airport (EGSS) |
Arrival
| Time | 2026-04-26 19:04 |
|---|---|
| Airport | Brindisi Airport (LIBR) |
| Time | Latitude | Longitude | Altitude | Speed | Heading |
|---|---|---|---|---|---|
| 2026-04-26 15:54 | 51.89621 | 0.26094 | 349 ft | 0 kts | 164° |
| 2026-04-26 16:29 | 51.89633 | 0.26089 | 352 ft | 4 kts | 164° |
| 2026-04-26 16:29 | 51.89659 | 0.26077 | 352 ft | 4 kts | 164° |
| 2026-04-26 16:29 | 51.89680 | 0.26067 | 359 ft | 3 kts | 165° |
| 2026-04-26 16:29 | 51.89701 | 0.26068 | 359 ft | 4 kts | 219° |
| 2026-04-26 16:30 | 51.89719 | 0.26093 | 354 ft | 3 kts | 223° |
| 2026-04-26 16:30 | 51.89722 | 0.26097 | 354 ft | 0 kts | 223° |
| 2026-04-26 16:32 | 51.89721 | 0.26097 | 354 ft | 0 kts | 223° |
| 2026-04-26 16:32 | 51.89716 | 0.26089 | 354 ft | 1 kts | 224° |
| 2026-04-26 16:32 | 51.89704 | 0.26069 | 359 ft | 6 kts | 226° |
| 2026-04-26 16:33 | 51.89665 | 0.26003 | 351 ft | 10 kts | 221° |
| 2026-04-26 16:33 | 51.89540 | 0.25824 | 351 ft | 31 kts | 220° |
| 2026-04-26 16:33 | 51.89385 | 0.25584 | 352 ft | 30 kts | 224° |
| 2026-04-26 16:33 | 51.89230 | 0.25356 | 353 ft | 30 kts | 223° |
| 2026-04-26 16:34 | 51.89081 | 0.25130 | 351 ft | 29 kts | 223° |
| 2026-04-26 16:34 | 51.88934 | 0.24914 | 351 ft | 28 kts | 223° |
| 2026-04-26 16:34 | 51.88792 | 0.24698 | 351 ft | 28 kts | 223° |
| 2026-04-26 16:34 | 51.88651 | 0.24491 | 352 ft | 27 kts | 221° |
| 2026-04-26 16:35 | 51.88514 | 0.24287 | 354 ft | 27 kts | 222° |
| 2026-04-26 16:35 | 51.88378 | 0.24087 | 353 ft | 26 kts | 224° |
| 2026-04-26 16:35 | 51.88247 | 0.23889 | 348 ft | 26 kts | 223° |
| 2026-04-26 16:35 | 51.88117 | 0.23693 | 352 ft | 25 kts | 223° |
| 2026-04-26 16:36 | 51.87989 | 0.23501 | 350 ft | 25 kts | 223° |
| 2026-04-26 16:36 | 51.87863 | 0.23309 | 353 ft | 25 kts | 223° |
| 2026-04-26 16:36 | 51.87747 | 0.23132 | 354 ft | 18 kts | 223° |
| 2026-04-26 16:36 | 51.87720 | 0.23077 | 351 ft | 0 kts | 244° |
| 2026-04-26 16:37 | 51.87715 | 0.23029 | 352 ft | 11 kts | 271° |
| 2026-04-26 16:37 | 51.87745 | 0.22866 | 352 ft | 14 kts | 263° |
| 2026-04-26 16:37 | 51.87704 | 0.22780 | 350 ft | 9 kts | 224° |
| 2026-04-26 16:37 | 51.87662 | 0.22716 | 356 ft | 19 kts | 223° |
| 2026-04-26 16:38 | 51.87469 | 0.22420 | 345 ft | 32 kts | 224° |
| 2026-04-26 16:38 | 51.87399 | 0.22235 | 337 ft | 9 kts | 269° |
| 2026-04-26 16:38 | 51.87426 | 0.22149 | 334 ft | 10 kts | 315° |
| 2026-04-26 16:38 | 51.87434 | 0.22138 | 335 ft | 0 kts | 316° |
| 2026-04-26 16:42 | 51.87436 | 0.22135 | 335 ft | 2 kts | 316° |
| 2026-04-26 16:42 | 51.87466 | 0.22090 | 335 ft | 12 kts | 320° |
| 2026-04-26 16:42 | 51.87568 | 0.22090 | 334 ft | 17 kts | 31° |
| 2026-04-26 16:42 | 51.87601 | 0.22131 | 334 ft | 0 kts | 41° |
| 2026-04-26 16:43 | 51.87664 | 0.22223 | 335 ft | 45 kts | 43° |
| 2026-04-26 16:43 | 51.88089 | 0.22881 | 336 ft | 121 kts | 44° |
| 2026-04-26 16:43 | 51.88861 | 0.24039 | 362 ft | 178 kts | 41° |
| 2026-04-26 16:44 | 51.89788 | 0.25454 | 1092 ft | 184 kts | 45° |
| 2026-04-26 16:44 | 51.90720 | 0.26877 | 1909 ft | 184 kts | 44° |
| 2026-04-26 16:44 | 51.91366 | 0.28718 | 2135 ft | 202 kts | 84° |
| 2026-04-26 16:44 | 51.91016 | 0.30989 | 2290 ft | 222 kts | 121° |
| 2026-04-26 16:45 | 51.90204 | 0.33273 | 2405 ft | 246 kts | 110° |
| 2026-04-26 16:45 | 51.89681 | 0.35961 | 2807 ft | 259 kts | 104° |
| 2026-04-26 16:45 | 51.89258 | 0.38816 | 3431 ft | 263 kts | 102° |
| 2026-04-26 16:45 | 51.88694 | 0.41659 | 3896 ft | 268 kts | 114° |
| 2026-04-26 16:46 | 51.87902 | 0.44394 | 3986 ft | 268 kts | 114° |
| 2026-04-26 16:46 | 51.87102 | 0.47118 | 4001 ft | 268 kts | 115° |
| 2026-04-26 16:46 | 51.86301 | 0.49836 | 4003 ft | 268 kts | 115° |
| 2026-04-26 16:46 | 51.85498 | 0.52556 | 4000 ft | 268 kts | 115° |
| 2026-04-26 16:47 | 51.84966 | 0.54360 | 4009 ft | 268 kts | 115° |
| 2026-04-26 16:47 | 51.84164 | 0.57073 | 3997 ft | 268 kts | 115° |
| 2026-04-26 16:47 | 51.83417 | 0.59838 | 4133 ft | 270 kts | 106° |
| 2026-04-26 16:47 | 51.83029 | 0.62802 | 4774 ft | 272 kts | 95° |
| 2026-04-26 16:48 | 51.83015 | 0.65853 | 4966 ft | 271 kts | 84° |
| 2026-04-26 16:48 | 51.83134 | 0.68892 | 4993 ft | 270 kts | 84° |
| 2026-04-26 16:48 | 51.83250 | 0.71923 | 4995 ft | 270 kts | 84° |
| 2026-04-26 16:48 | 51.83370 | 0.74968 | 5370 ft | 272 kts | 85° |
| 2026-04-26 16:49 | 51.83491 | 0.78030 | 6105 ft | 274 kts | 84° |
| 2026-04-26 16:49 | 51.83612 | 0.81129 | 6731 ft | 278 kts | 85° |
| 2026-04-26 16:49 | 51.83735 | 0.84272 | 7319 ft | 281 kts | 85° |
| 2026-04-26 16:49 | 51.83855 | 0.87445 | 7973 ft | 284 kts | 85° |
| 2026-04-26 16:50 | 51.83974 | 0.90651 | 8559 ft | 287 kts | 85° |
| 2026-04-26 16:50 | 51.84094 | 0.93905 | 9171 ft | 291 kts | 85° |
| 2026-04-26 16:50 | 51.84214 | 0.97149 | 9781 ft | 294 kts | 85° |
| 2026-04-26 16:50 | 51.84335 | 1.00487 | 10224 ft | 305 kts | 85° |
| 2026-04-26 16:51 | 51.84459 | 1.04011 | 10342 ft | 323 kts | 87° |
| 2026-04-26 16:51 | 51.84318 | 1.07747 | 10472 ft | 342 kts | 98° |
| 2026-04-26 16:51 | 51.83692 | 1.11553 | 10598 ft | 359 kts | 111° |
| 2026-04-26 16:51 | 51.82537 | 1.15238 | 10719 ft | 375 kts | 123° |
| 2026-04-26 16:52 | 51.80856 | 1.18551 | 10920 ft | 387 kts | 136° |
| 2026-04-26 16:52 | 51.79490 | 1.20414 | 11177 ft | 390 kts | 144° |
| 2026-04-26 16:52 | 51.76504 | 1.23779 | 11787 ft | 393 kts | 146° |
| 2026-04-26 16:52 | 51.74217 | 1.26219 | 12255 ft | 396 kts | 147° |
| 2026-04-26 16:53 | 51.71892 | 1.28637 | 12732 ft | 398 kts | 148° |
| 2026-04-26 16:53 | 51.69558 | 1.31055 | 13196 ft | 401 kts | 148° |
| 2026-04-26 16:53 | 51.67178 | 1.33426 | 13662 ft | 403 kts | 153° |
| 2026-04-26 16:53 | 51.64595 | 1.35209 | 14123 ft | 405 kts | 163° |
| 2026-04-26 16:54 | 51.61850 | 1.36239 | 14532 ft | 405 kts | 173° |
| 2026-04-26 16:54 | 51.59029 | 1.36553 | 14941 ft | 407 kts | 179° |
| 2026-04-26 16:54 | 51.56232 | 1.36761 | 15340 ft | 409 kts | 175° |
| 2026-04-26 16:54 | 51.53463 | 1.37876 | 15715 ft | 414 kts | 158° |
| 2026-04-26 16:55 | 51.51000 | 1.40287 | 16099 ft | 418 kts | 140° |
| 2026-04-26 16:55 | 51.49075 | 1.43801 | 16363 ft | 425 kts | 122° |
| 2026-04-26 16:55 | 51.47663 | 1.48022 | 16499 ft | 433 kts | 117° |
| 2026-04-26 16:55 | 51.46289 | 1.52369 | 16672 ft | 440 kts | 117° |
| 2026-04-26 16:56 | 51.43495 | 1.61220 | 17321 ft | 447 kts | 117° |
| 2026-04-26 16:56 | 51.42076 | 1.65661 | 17669 ft | 449 kts | 117° |
| 2026-04-26 16:56 | 51.40640 | 1.70118 | 18018 ft | 451 kts | 117° |
| 2026-04-26 16:57 | 51.39195 | 1.74595 | 18360 ft | 454 kts | 117° |
| 2026-04-26 16:57 | 51.37741 | 1.79087 | 18671 ft | 456 kts | 117° |
| 2026-04-26 16:57 | 51.34826 | 1.88090 | 19238 ft | 460 kts | 118° |
| 2026-04-26 16:58 | 51.33331 | 1.92710 | 19525 ft | 462 kts | 118° |
| 2026-04-26 16:58 | 51.32351 | 1.95731 | 19715 ft | 464 kts | 118° |
| 2026-04-26 16:58 | 51.28873 | 2.06421 | 20394 ft | 468 kts | 118° |
| 2026-04-26 16:59 | 51.27367 | 2.11037 | 20689 ft | 470 kts | 118° |
| 2026-04-26 16:59 | 51.24321 | 2.20341 | 21259 ft | 474 kts | 118° |
| 2026-04-26 17:00 | 51.21238 | 2.29689 | 21818 ft | 478 kts | 118° |
| 2026-04-26 17:00 | 51.18125 | 2.39101 | 22344 ft | 482 kts | 119° |
| 2026-04-26 17:00 | 51.16580 | 2.43776 | 22603 ft | 484 kts | 119° |
| 2026-04-26 17:01 | 51.15012 | 2.48520 | 22849 ft | 485 kts | 119° |
| 2026-04-26 17:01 | 51.13432 | 2.53294 | 23078 ft | 487 kts | 119° |
| 2026-04-26 17:01 | 51.11847 | 2.58064 | 23306 ft | 489 kts | 119° |
| 2026-04-26 17:01 | 51.10251 | 2.62854 | 23520 ft | 490 kts | 119° |
| 2026-04-26 17:02 | 51.08483 | 2.67492 | 23725 ft | 490 kts | 126° |
| 2026-04-26 17:02 | 51.06545 | 2.71966 | 23903 ft | 492 kts | 126° |
| 2026-04-26 17:02 | 51.04602 | 2.76452 | 24063 ft | 493 kts | 126° |
| 2026-04-26 17:02 | 51.02651 | 2.80948 | 24221 ft | 494 kts | 126° |
| 2026-04-26 17:03 | 51.00698 | 2.85441 | 24371 ft | 496 kts | 126° |
| 2026-04-26 17:03 | 50.98737 | 2.89952 | 24489 ft | 497 kts | 126° |
| 2026-04-26 17:03 | 50.96764 | 2.94484 | 24624 ft | 498 kts | 126° |
| 2026-04-26 17:03 | 50.94794 | 2.98997 | 24756 ft | 499 kts | 126° |
| 2026-04-26 17:04 | 50.92747 | 3.03440 | 24862 ft | 498 kts | 133° |
| 2026-04-26 17:04 | 50.90269 | 3.07253 | 24979 ft | 497 kts | 140° |
| 2026-04-26 17:04 | 50.87704 | 3.10916 | 25091 ft | 497 kts | 140° |
| 2026-04-26 17:04 | 50.85128 | 3.14579 | 25204 ft | 498 kts | 140° |
| 2026-04-26 17:05 | 50.82578 | 3.18190 | 25321 ft | 499 kts | 140° |
| 2026-04-26 17:05 | 50.79983 | 3.21856 | 25446 ft | 500 kts | 140° |
| 2026-04-26 17:05 | 50.77388 | 3.25516 | 25590 ft | 500 kts | 140° |
| 2026-04-26 17:05 | 50.74794 | 3.29170 | 25747 ft | 500 kts | 140° |
| 2026-04-26 17:06 | 50.72200 | 3.32826 | 25907 ft | 500 kts | 140° |
| 2026-04-26 17:06 | 50.69606 | 3.36478 | 26067 ft | 499 kts | 140° |
| 2026-04-26 17:06 | 50.67014 | 3.40121 | 26245 ft | 499 kts | 140° |
| 2026-04-26 17:06 | 50.64420 | 3.43757 | 26408 ft | 499 kts | 141° |
| 2026-04-26 17:07 | 50.61826 | 3.47387 | 26564 ft | 499 kts | 141° |
| 2026-04-26 17:07 | 50.59235 | 3.51014 | 26741 ft | 499 kts | 141° |
| 2026-04-26 17:07 | 50.56640 | 3.54641 | 26896 ft | 498 kts | 141° |
| 2026-04-26 17:07 | 50.54045 | 3.58257 | 27072 ft | 498 kts | 141° |
| 2026-04-26 17:08 | 50.51447 | 3.61867 | 27231 ft | 498 kts | 141° |
| 2026-04-26 17:08 | 50.48855 | 3.65462 | 27408 ft | 498 kts | 141° |
| 2026-04-26 17:08 | 50.46256 | 3.69062 | 27571 ft | 498 kts | 141° |
| 2026-04-26 17:08 | 50.43659 | 3.72654 | 27742 ft | 497 kts | 141° |
| 2026-04-26 17:09 | 50.41066 | 3.76235 | 27912 ft | 497 kts | 141° |
| 2026-04-26 17:09 | 50.39341 | 3.78613 | 28029 ft | 497 kts | 141° |
| 2026-04-26 17:09 | 50.35867 | 3.83396 | 28266 ft | 497 kts | 141° |
| 2026-04-26 17:09 | 50.33270 | 3.86963 | 28439 ft | 497 kts | 141° |
| 2026-04-26 17:10 | 50.30671 | 3.90533 | 28616 ft | 497 kts | 141° |
| 2026-04-26 17:10 | 50.28076 | 3.94103 | 28791 ft | 496 kts | 141° |
| 2026-04-26 17:10 | 50.25482 | 3.97668 | 28963 ft | 496 kts | 141° |
| 2026-04-26 17:10 | 50.22887 | 4.01222 | 29138 ft | 496 kts | 141° |
| 2026-04-26 17:11 | 50.20294 | 4.04764 | 29322 ft | 496 kts | 141° |
| 2026-04-26 17:11 | 50.17699 | 4.08300 | 29505 ft | 495 kts | 141° |
| 2026-04-26 17:11 | 50.15098 | 4.11832 | 29690 ft | 495 kts | 141° |
| 2026-04-26 17:11 | 50.12502 | 4.15356 | 29874 ft | 495 kts | 141° |
| 2026-04-26 17:12 | 50.07353 | 4.22342 | 30223 ft | 494 kts | 141° |
| 2026-04-26 17:12 | 50.04757 | 4.25861 | 30395 ft | 494 kts | 141° |
| 2026-04-26 17:13 | 49.99576 | 4.32880 | 30693 ft | 494 kts | 141° |
| 2026-04-26 17:13 | 49.96982 | 4.36378 | 30839 ft | 494 kts | 141° |
| 2026-04-26 17:13 | 49.91798 | 4.43346 | 31147 ft | 493 kts | 141° |
| 2026-04-26 17:14 | 49.89204 | 4.46826 | 31285 ft | 493 kts | 141° |
| 2026-04-26 17:14 | 49.84017 | 4.53773 | 31577 ft | 492 kts | 141° |
| 2026-04-26 17:14 | 49.81429 | 4.57234 | 31730 ft | 492 kts | 141° |
| 2026-04-26 17:15 | 49.76244 | 4.64139 | 32043 ft | 490 kts | 141° |
| 2026-04-26 17:15 | 49.73657 | 4.67572 | 32201 ft | 490 kts | 141° |
| 2026-04-26 17:15 | 49.71066 | 4.71001 | 32334 ft | 490 kts | 141° |
| 2026-04-26 17:16 | 49.69354 | 4.73266 | 32449 ft | 489 kts | 141° |
| 2026-04-26 17:17 | 49.66918 | 4.76503 | 32527 ft | 490 kts | 141° |
| 2026-04-26 17:17 | 49.64331 | 4.79940 | 32695 ft | 489 kts | 141° |
| 2026-04-26 17:17 | 49.61752 | 4.83356 | 32863 ft | 489 kts | 141° |
| 2026-04-26 17:17 | 49.59170 | 4.86762 | 32992 ft | 488 kts | 141° |
| 2026-04-26 17:18 | 49.56593 | 4.90156 | 33166 ft | 487 kts | 141° |
| 2026-04-26 17:18 | 49.51431 | 4.96941 | 33209 ft | 488 kts | 141° |
| 2026-04-26 17:19 | 49.43660 | 5.07097 | 33214 ft | 489 kts | 141° |
| 2026-04-26 17:19 | 49.38479 | 5.13862 | 33204 ft | 489 kts | 141° |
| 2026-04-26 17:20 | 49.35050 | 5.18322 | 33202 ft | 489 kts | 141° |
| 2026-04-26 17:20 | 49.28131 | 5.27297 | 33212 ft | 489 kts | 141° |
| 2026-04-26 17:21 | 49.22925 | 5.34029 | 33212 ft | 490 kts | 141° |
| 2026-04-26 17:21 | 49.17715 | 5.40760 | 33217 ft | 491 kts | 141° |
| 2026-04-26 17:22 | 49.12489 | 5.47489 | 33222 ft | 491 kts | 141° |
| 2026-04-26 17:22 | 49.07249 | 5.54203 | 33226 ft | 491 kts | 141° |
| 2026-04-26 17:23 | 49.02035 | 5.60857 | 33226 ft | 491 kts | 141° |
| 2026-04-26 17:23 | 48.96804 | 5.67539 | 33232 ft | 491 kts | 141° |
| 2026-04-26 17:24 | 48.91557 | 5.74235 | 33234 ft | 492 kts | 140° |
| 2026-04-26 17:24 | 48.86297 | 5.80907 | 33222 ft | 493 kts | 140° |
| 2026-04-26 17:25 | 48.81019 | 5.87569 | 33213 ft | 494 kts | 140° |
| 2026-04-26 17:25 | 48.75725 | 5.94242 | 33214 ft | 495 kts | 140° |
| 2026-04-26 17:26 | 48.70429 | 6.00915 | 33212 ft | 495 kts | 140° |
| 2026-04-26 17:26 | 48.65121 | 6.07573 | 33214 ft | 496 kts | 140° |
| 2026-04-26 17:27 | 48.59806 | 6.14211 | 33214 ft | 495 kts | 140° |
| 2026-04-26 17:27 | 48.54491 | 6.20840 | 33224 ft | 495 kts | 140° |
| 2026-04-26 17:28 | 48.49175 | 6.27452 | 33225 ft | 495 kts | 140° |
| 2026-04-26 17:28 | 48.43850 | 6.34059 | 33220 ft | 495 kts | 140° |
| 2026-04-26 17:29 | 48.40317 | 6.38418 | 33217 ft | 495 kts | 140° |
| 2026-04-26 17:29 | 48.33195 | 6.47196 | 33215 ft | 495 kts | 140° |
| 2026-04-26 17:30 | 48.27873 | 6.53743 | 33212 ft | 494 kts | 140° |
| 2026-04-26 17:30 | 48.22585 | 6.60228 | 33216 ft | 494 kts | 140° |
| 2026-04-26 17:31 | 48.17286 | 6.66797 | 33214 ft | 494 kts | 136° |
| 2026-04-26 17:31 | 48.12905 | 6.74645 | 33210 ft | 491 kts | 123° |
| 2026-04-26 17:32 | 48.08935 | 6.82950 | 33212 ft | 491 kts | 124° |
| 2026-04-26 17:32 | 48.04939 | 6.91230 | 33208 ft | 491 kts | 124° |
| 2026-04-26 17:33 | 48.00933 | 6.99505 | 33201 ft | 491 kts | 124° |
| 2026-04-26 17:34 | 47.94918 | 7.11868 | 33204 ft | 490 kts | 124° |
| 2026-04-26 17:34 | 47.90913 | 7.20088 | 33196 ft | 490 kts | 124° |
| 2026-04-26 17:35 | 47.86907 | 7.28293 | 33200 ft | 490 kts | 125° |
| 2026-04-26 17:35 | 47.82897 | 7.36492 | 33197 ft | 489 kts | 125° |
| 2026-04-26 17:36 | 47.78879 | 7.44666 | 33190 ft | 489 kts | 125° |
| 2026-04-26 17:36 | 47.75537 | 7.51434 | 33189 ft | 489 kts | 125° |
| 2026-04-26 17:37 | 47.70861 | 7.60885 | 33187 ft | 488 kts | 125° |
| 2026-04-26 17:37 | 47.66841 | 7.69006 | 33192 ft | 488 kts | 126° |
| 2026-04-26 17:38 | 47.61454 | 7.79845 | 33192 ft | 488 kts | 126° |
| 2026-04-26 17:38 | 47.57418 | 7.87927 | 33195 ft | 488 kts | 126° |
| 2026-04-26 17:39 | 47.53376 | 7.95994 | 33200 ft | 488 kts | 126° |
| 2026-04-26 17:39 | 47.49348 | 8.03995 | 33200 ft | 487 kts | 126° |
| 2026-04-26 17:40 | 47.45962 | 8.10731 | 33205 ft | 487 kts | 126° |
| 2026-04-26 17:40 | 47.41263 | 8.20060 | 33205 ft | 487 kts | 127° |
| 2026-04-26 17:41 | 47.37210 | 8.28065 | 33207 ft | 486 kts | 127° |
| 2026-04-26 17:41 | 47.33148 | 8.36059 | 33211 ft | 486 kts | 127° |
| 2026-04-26 17:42 | 47.29021 | 8.43951 | 33207 ft | 486 kts | 130° |
| 2026-04-26 17:42 | 47.24629 | 8.51425 | 33208 ft | 485 kts | 133° |
| 2026-04-26 17:43 | 47.20096 | 8.58785 | 33214 ft | 485 kts | 133° |
| 2026-04-26 17:43 | 47.15614 | 8.66205 | 33221 ft | 485 kts | 131° |
| 2026-04-26 17:44 | 47.11185 | 8.73681 | 33203 ft | 485 kts | 131° |
| 2026-04-26 17:44 | 47.06757 | 8.81169 | 33206 ft | 485 kts | 131° |
| 2026-04-26 17:45 | 47.02313 | 8.88617 | 33210 ft | 485 kts | 132° |
| 2026-04-26 17:45 | 46.97860 | 8.96024 | 33209 ft | 484 kts | 132° |
| 2026-04-26 17:46 | 46.93414 | 9.03412 | 33204 ft | 483 kts | 132° |
| 2026-04-26 17:46 | 46.88958 | 9.10793 | 33201 ft | 483 kts | 133° |
| 2026-04-26 17:47 | 46.85257 | 9.16908 | 33196 ft | 483 kts | 133° |
| 2026-04-26 17:47 | 46.80046 | 9.25506 | 33195 ft | 483 kts | 133° |
| 2026-04-26 17:48 | 46.75586 | 9.32834 | 33199 ft | 483 kts | 133° |
| 2026-04-26 17:48 | 46.71121 | 9.40152 | 33198 ft | 482 kts | 133° |
| 2026-04-26 17:49 | 46.66679 | 9.47415 | 33207 ft | 483 kts | 133° |
| 2026-04-26 17:49 | 46.62211 | 9.54698 | 33207 ft | 482 kts | 134° |
| 2026-04-26 17:50 | 46.57740 | 9.61980 | 33215 ft | 482 kts | 134° |
| 2026-04-26 17:50 | 46.53258 | 9.69257 | 33217 ft | 483 kts | 134° |
| 2026-04-26 17:51 | 46.48778 | 9.76513 | 33217 ft | 482 kts | 134° |
| 2026-04-26 17:51 | 46.44299 | 9.83762 | 33213 ft | 482 kts | 134° |
| 2026-04-26 17:52 | 46.39812 | 9.90982 | 33205 ft | 482 kts | 134° |
| 2026-04-26 17:52 | 46.35306 | 9.98187 | 33205 ft | 482 kts | 134° |
| 2026-04-26 17:53 | 46.30805 | 10.05385 | 33201 ft | 482 kts | 134° |
| 2026-04-26 17:54 | 46.24034 | 10.16187 | 33196 ft | 484 kts | 134° |
| 2026-04-26 17:54 | 46.19514 | 10.23385 | 33191 ft | 483 kts | 135° |
| 2026-04-26 17:55 | 46.15026 | 10.30508 | 33186 ft | 483 kts | 135° |
| 2026-04-26 17:55 | 46.10500 | 10.37662 | 33188 ft | 484 kts | 135° |
| 2026-04-26 17:56 | 46.05959 | 10.44826 | 33189 ft | 484 kts | 135° |
| 2026-04-26 17:57 | 45.96864 | 10.59109 | 33180 ft | 484 kts | 135° |
| 2026-04-26 17:57 | 45.92307 | 10.66235 | 33171 ft | 484 kts | 135° |
| 2026-04-26 17:58 | 45.83184 | 10.80471 | 33151 ft | 485 kts | 135° |
| 2026-04-26 17:59 | 45.76359 | 10.91086 | 33141 ft | 485 kts | 135° |
| 2026-04-26 17:59 | 45.71774 | 10.98180 | 33130 ft | 485 kts | 135° |
| 2026-04-26 18:00 | 45.67189 | 11.05254 | 33130 ft | 485 kts | 135° |
| 2026-04-26 18:00 | 45.62597 | 11.12302 | 33129 ft | 484 kts | 135° |
| 2026-04-26 18:01 | 45.58006 | 11.19349 | 33120 ft | 485 kts | 135° |
| 2026-04-26 18:01 | 45.53416 | 11.26380 | 33107 ft | 485 kts | 135° |
| 2026-04-26 18:02 | 45.49577 | 11.32249 | 33105 ft | 486 kts | 135° |
| 2026-04-26 18:02 | 45.44183 | 11.40468 | 33111 ft | 486 kts | 135° |
| 2026-04-26 18:03 | 45.39563 | 11.47489 | 33092 ft | 486 kts | 135° |
| 2026-04-26 18:03 | 45.34928 | 11.54507 | 33105 ft | 486 kts | 135° |
| 2026-04-26 18:04 | 45.30283 | 11.61526 | 33049 ft | 490 kts | 135° |
| 2026-04-26 18:05 | 45.23235 | 11.72154 | 33053 ft | 495 kts | 135° |
| 2026-04-26 18:05 | 45.18525 | 11.79231 | 33076 ft | 497 kts | 134° |
| 2026-04-26 18:06 | 45.13770 | 11.86357 | 33096 ft | 498 kts | 135° |
| 2026-04-26 18:06 | 45.08967 | 11.93423 | 33105 ft | 498 kts | 135° |
| 2026-04-26 18:07 | 45.04123 | 12.00416 | 33106 ft | 498 kts | 135° |
| 2026-04-26 18:07 | 44.99276 | 12.07405 | 33107 ft | 498 kts | 135° |
| 2026-04-26 18:08 | 44.94441 | 12.14389 | 33114 ft | 497 kts | 135° |
| 2026-04-26 18:08 | 44.89611 | 12.21372 | 33113 ft | 497 kts | 135° |
| 2026-04-26 18:09 | 44.84779 | 12.28339 | 33112 ft | 497 kts | 135° |
| 2026-04-26 18:09 | 44.79942 | 12.35285 | 33115 ft | 496 kts | 135° |
| 2026-04-26 18:10 | 44.75101 | 12.42214 | 33117 ft | 496 kts | 135° |
| 2026-04-26 18:10 | 44.70258 | 12.49130 | 33119 ft | 496 kts | 135° |
| 2026-04-26 18:11 | 44.65415 | 12.56031 | 33121 ft | 496 kts | 135° |
| 2026-04-26 18:11 | 44.60567 | 12.62916 | 33121 ft | 495 kts | 135° |
| 2026-04-26 18:12 | 44.55723 | 12.69781 | 33121 ft | 495 kts | 135° |
| 2026-04-26 18:12 | 44.50873 | 12.76639 | 33122 ft | 495 kts | 135° |
| 2026-04-26 18:13 | 44.46022 | 12.83473 | 33120 ft | 495 kts | 135° |
| 2026-04-26 18:13 | 44.41173 | 12.90299 | 33123 ft | 494 kts | 135° |
| 2026-04-26 18:14 | 44.36323 | 12.97108 | 33126 ft | 494 kts | 135° |
| 2026-04-26 18:14 | 44.31502 | 13.03857 | 33126 ft | 494 kts | 135° |
| 2026-04-26 18:15 | 44.26642 | 13.10629 | 33127 ft | 494 kts | 135° |
| 2026-04-26 18:15 | 44.21784 | 13.17396 | 33124 ft | 493 kts | 135° |
| 2026-04-26 18:16 | 44.16925 | 13.24148 | 33128 ft | 493 kts | 135° |
| 2026-04-26 18:16 | 44.09636 | 13.34259 | 33128 ft | 493 kts | 136° |
| 2026-04-26 18:17 | 44.04773 | 13.40974 | 33133 ft | 493 kts | 136° |
| 2026-04-26 18:17 | 43.99898 | 13.47686 | 33134 ft | 493 kts | 136° |
| 2026-04-26 18:18 | 43.95024 | 13.54390 | 33136 ft | 493 kts | 136° |
| 2026-04-26 18:18 | 43.90148 | 13.61069 | 33137 ft | 492 kts | 136° |
| 2026-04-26 18:19 | 43.85271 | 13.67728 | 33133 ft | 492 kts | 136° |
| 2026-04-26 18:19 | 43.80390 | 13.74383 | 33135 ft | 492 kts | 136° |
| 2026-04-26 18:20 | 43.75507 | 13.81029 | 33135 ft | 492 kts | 136° |
| 2026-04-26 18:20 | 43.72273 | 13.85424 | 33137 ft | 492 kts | 136° |
| 2026-04-26 18:21 | 43.65762 | 13.94252 | 33138 ft | 492 kts | 136° |
| 2026-04-26 18:21 | 43.60864 | 14.00865 | 33142 ft | 492 kts | 136° |
| 2026-04-26 18:22 | 43.55963 | 14.07478 | 33140 ft | 492 kts | 136° |
| 2026-04-26 18:22 | 43.51061 | 14.14071 | 33140 ft | 492 kts | 136° |
| 2026-04-26 18:23 | 43.46987 | 14.19541 | 33141 ft | 492 kts | 136° |
| 2026-04-26 18:23 | 43.42073 | 14.26111 | 33142 ft | 492 kts | 137° |
| 2026-04-26 18:24 | 43.37160 | 14.32660 | 33145 ft | 492 kts | 137° |
| 2026-04-26 18:24 | 43.32245 | 14.39212 | 33144 ft | 492 kts | 136° |
| 2026-04-26 18:25 | 43.27342 | 14.45744 | 33121 ft | 491 kts | 137° |
| 2026-04-26 18:25 | 43.22436 | 14.52253 | 33120 ft | 491 kts | 137° |
| 2026-04-26 18:26 | 43.17512 | 14.58754 | 33122 ft | 491 kts | 137° |
| 2026-04-26 18:26 | 43.12592 | 14.65245 | 33120 ft | 491 kts | 137° |
| 2026-04-26 18:27 | 43.07668 | 14.71739 | 33127 ft | 492 kts | 137° |
| 2026-04-26 18:27 | 43.02764 | 14.78178 | 33130 ft | 492 kts | 137° |
| 2026-04-26 18:28 | 42.97812 | 14.84664 | 33134 ft | 493 kts | 137° |
| 2026-04-26 18:28 | 42.92844 | 14.91142 | 33139 ft | 493 kts | 137° |
| 2026-04-26 18:29 | 42.87909 | 14.97580 | 33141 ft | 493 kts | 137° |
| 2026-04-26 18:29 | 42.82949 | 15.04047 | 33144 ft | 494 kts | 137° |
| 2026-04-26 18:30 | 42.77986 | 15.10515 | 33146 ft | 494 kts | 137° |
| 2026-04-26 18:30 | 42.73011 | 15.16954 | 33147 ft | 493 kts | 137° |
| 2026-04-26 18:31 | 42.68023 | 15.23380 | 33143 ft | 493 kts | 137° |
| 2026-04-26 18:31 | 42.63040 | 15.29795 | 33142 ft | 494 kts | 137° |
| 2026-04-26 18:32 | 42.58047 | 15.36219 | 33141 ft | 494 kts | 137° |
| 2026-04-26 18:32 | 42.53051 | 15.42635 | 33141 ft | 494 kts | 137° |
| 2026-04-26 18:33 | 42.48052 | 15.49045 | 33141 ft | 494 kts | 137° |
| 2026-04-26 18:33 | 42.43076 | 15.55395 | 33141 ft | 494 kts | 137° |
| 2026-04-26 18:34 | 42.38061 | 15.61786 | 33139 ft | 495 kts | 137° |
| 2026-04-26 18:34 | 42.33049 | 15.68155 | 33140 ft | 494 kts | 137° |
| 2026-04-26 18:35 | 42.28035 | 15.74523 | 33145 ft | 495 kts | 137° |
| 2026-04-26 18:35 | 42.23013 | 15.80891 | 33152 ft | 495 kts | 137° |
| 2026-04-26 18:36 | 42.17987 | 15.87242 | 33143 ft | 495 kts | 137° |
| 2026-04-26 18:36 | 42.12955 | 15.93569 | 33146 ft | 495 kts | 137° |
| 2026-04-26 18:37 | 42.07920 | 15.99890 | 33145 ft | 495 kts | 137° |
| 2026-04-26 18:37 | 42.02880 | 16.06210 | 33155 ft | 495 kts | 137° |
| 2026-04-26 18:38 | 41.97843 | 16.12517 | 33128 ft | 494 kts | 137° |
| 2026-04-26 18:38 | 41.92816 | 16.18798 | 33124 ft | 493 kts | 137° |
| 2026-04-26 18:39 | 41.87813 | 16.25025 | 33119 ft | 493 kts | 137° |
| 2026-04-26 18:39 | 41.82777 | 16.31279 | 33115 ft | 493 kts | 137° |
| 2026-04-26 18:40 | 41.77741 | 16.37524 | 33118 ft | 493 kts | 138° |
| 2026-04-26 18:40 | 41.72694 | 16.43759 | 33118 ft | 493 kts | 138° |
| 2026-04-26 18:41 | 41.67653 | 16.49988 | 33115 ft | 493 kts | 137° |
| 2026-04-26 18:41 | 41.62642 | 16.56174 | 33114 ft | 493 kts | 138° |
| 2026-04-26 18:42 | 41.57593 | 16.62372 | 33114 ft | 493 kts | 138° |
| 2026-04-26 18:42 | 41.52543 | 16.68562 | 33120 ft | 493 kts | 138° |
| 2026-04-26 18:43 | 41.47490 | 16.74749 | 33117 ft | 493 kts | 138° |
| 2026-04-26 18:43 | 41.42437 | 16.80935 | 33115 ft | 493 kts | 138° |
| 2026-04-26 18:44 | 41.37436 | 16.87181 | 33126 ft | 493 kts | 132° |
| 2026-04-26 18:44 | 41.32899 | 16.94052 | 33131 ft | 494 kts | 131° |
| 2026-04-26 18:45 | 41.28361 | 17.00911 | 33131 ft | 494 kts | 131° |
| 2026-04-26 18:45 | 41.23812 | 17.07744 | 33129 ft | 494 kts | 131° |
| 2026-04-26 18:46 | 41.19279 | 17.14533 | 33138 ft | 493 kts | 131° |
| 2026-04-26 18:46 | 41.14720 | 17.21342 | 33132 ft | 493 kts | 132° |
| 2026-04-26 18:47 | 41.10158 | 17.28125 | 33142 ft | 493 kts | 132° |
| 2026-04-26 18:47 | 41.07876 | 17.31499 | 32727 ft | 486 kts | 132° |
| 2026-04-26 18:47 | 41.05626 | 17.34824 | 31031 ft | 485 kts | 132° |
| 2026-04-26 18:48 | 41.03363 | 17.38163 | 28999 ft | 490 kts | 132° |
| 2026-04-26 18:48 | 41.01078 | 17.41537 | 26786 ft | 494 kts | 133° |
| 2026-04-26 18:48 | 40.98772 | 17.44939 | 24628 ft | 498 kts | 133° |
| 2026-04-26 18:48 | 40.96461 | 17.48344 | 22795 ft | 493 kts | 133° |
| 2026-04-26 18:49 | 40.94185 | 17.51696 | 21280 ft | 487 kts | 133° |
| 2026-04-26 18:49 | 40.91942 | 17.54996 | 20122 ft | 478 kts | 133° |
| 2026-04-26 18:49 | 40.89738 | 17.58237 | 19158 ft | 468 kts | 134° |
| 2026-04-26 18:49 | 40.87601 | 17.61402 | 18430 ft | 457 kts | 133° |
| 2026-04-26 18:50 | 40.85633 | 17.64547 | 17482 ft | 450 kts | 125° |
| 2026-04-26 18:50 | 40.84173 | 17.68183 | 16546 ft | 442 kts | 115° |
| 2026-04-26 18:50 | 40.82903 | 17.71844 | 15645 ft | 435 kts | 115° |
| 2026-04-26 18:50 | 40.81653 | 17.75439 | 14783 ft | 427 kts | 115° |
| 2026-04-26 18:51 | 40.80414 | 17.78965 | 13950 ft | 420 kts | 115° |
| 2026-04-26 18:51 | 40.79180 | 17.82441 | 13024 ft | 414 kts | 115° |
| 2026-04-26 18:51 | 40.77960 | 17.85850 | 12373 ft | 410 kts | 115° |
| 2026-04-26 18:51 | 40.76738 | 17.89245 | 12157 ft | 410 kts | 115° |
| 2026-04-26 18:52 | 40.75514 | 17.92636 | 12103 ft | 409 kts | 115° |
| 2026-04-26 18:52 | 40.74702 | 17.94886 | 12108 ft | 410 kts | 115° |
| 2026-04-26 18:52 | 40.73002 | 17.99361 | 11695 ft | 405 kts | 122° |
| 2026-04-26 18:52 | 40.71152 | 18.02108 | 10993 ft | 400 kts | 138° |
| 2026-04-26 18:53 | 40.69060 | 18.04432 | 10376 ft | 397 kts | 140° |
| 2026-04-26 18:53 | 40.66968 | 18.06707 | 10156 ft | 373 kts | 140° |
| 2026-04-26 18:53 | 40.65059 | 18.08771 | 9913 ft | 340 kts | 140° |
| 2026-04-26 18:53 | 40.63310 | 18.10655 | 9719 ft | 310 kts | 140° |
| 2026-04-26 18:54 | 40.61684 | 18.12400 | 9233 ft | 295 kts | 140° |
| 2026-04-26 18:54 | 40.60219 | 18.14240 | 8526 ft | 288 kts | 132° |
| 2026-04-26 18:54 | 40.58813 | 18.16100 | 7800 ft | 286 kts | 135° |
| 2026-04-26 18:54 | 40.57391 | 18.17914 | 7100 ft | 283 kts | 135° |
| 2026-04-26 18:55 | 40.55984 | 18.19705 | 6418 ft | 280 kts | 135° |
| 2026-04-26 18:55 | 40.54588 | 18.21480 | 5700 ft | 278 kts | 135° |
| 2026-04-26 18:55 | 40.53205 | 18.23243 | 5168 ft | 274 kts | 135° |
| 2026-04-26 18:55 | 40.51848 | 18.24978 | 5013 ft | 278 kts | 135° |
| 2026-04-26 18:56 | 40.50537 | 18.26842 | 5011 ft | 279 kts | 129° |
| 2026-04-26 18:56 | 40.49051 | 18.28447 | 5007 ft | 278 kts | 158° |
| 2026-04-26 18:56 | 40.47233 | 18.28804 | 5108 ft | 249 kts | 190° |
| 2026-04-26 18:56 | 40.45666 | 18.28150 | 5212 ft | 234 kts | 218° |
| 2026-04-26 18:57 | 40.44698 | 18.26544 | 5315 ft | 224 kts | 254° |
| 2026-04-26 18:57 | 40.44558 | 18.25214 | 5444 ft | 229 kts | 274° |
| 2026-04-26 18:57 | 40.44865 | 18.22640 | 5367 ft | 231 kts | 293° |
| 2026-04-26 18:57 | 40.45572 | 18.20837 | 5318 ft | 215 kts | 298° |
| 2026-04-26 18:58 | 40.46189 | 18.19095 | 5064 ft | 208 kts | 296° |
| 2026-04-26 18:58 | 40.47020 | 18.17561 | 4902 ft | 207 kts | 316° |
| 2026-04-26 18:58 | 40.48050 | 18.16302 | 4646 ft | 198 kts | 319° |
| 2026-04-26 18:58 | 40.49062 | 18.15092 | 4391 ft | 196 kts | 318° |
| 2026-04-26 18:59 | 40.50060 | 18.13887 | 4132 ft | 194 kts | 318° |
| 2026-04-26 18:59 | 40.51049 | 18.12688 | 3877 ft | 193 kts | 319° |
| 2026-04-26 18:59 | 40.52037 | 18.11490 | 3622 ft | 192 kts | 319° |
| 2026-04-26 18:59 | 40.53016 | 18.10301 | 3378 ft | 191 kts | 319° |
| 2026-04-26 19:00 | 40.53986 | 18.09123 | 3150 ft | 188 kts | 319° |
| 2026-04-26 19:00 | 40.54946 | 18.07957 | 2879 ft | 183 kts | 319° |
| 2026-04-26 19:00 | 40.55830 | 18.06880 | 2649 ft | 164 kts | 319° |
| 2026-04-26 19:00 | 40.56656 | 18.05876 | 2429 ft | 159 kts | 319° |
| 2026-04-26 19:01 | 40.57458 | 18.04902 | 2224 ft | 156 kts | 319° |
| 2026-04-26 19:01 | 40.58253 | 18.03934 | 2020 ft | 154 kts | 319° |
| 2026-04-26 19:01 | 40.59025 | 18.02995 | 1820 ft | 149 kts | 319° |
| 2026-04-26 19:01 | 40.59784 | 18.02071 | 1619 ft | 148 kts | 319° |
| 2026-04-26 19:02 | 40.60539 | 18.01151 | 1422 ft | 148 kts | 319° |
| 2026-04-26 19:02 | 40.61294 | 18.00232 | 1230 ft | 148 kts | 319° |
| 2026-04-26 19:02 | 40.62051 | 17.99309 | 1026 ft | 148 kts | 319° |
| 2026-04-26 19:02 | 40.62552 | 17.98699 | 900 ft | 149 kts | 319° |
| 2026-04-26 19:03 | 40.63573 | 17.97453 | 641 ft | 151 kts | 317° |
| 2026-04-26 19:03 | 40.64347 | 17.96509 | 418 ft | 151 kts | 317° |
| 2026-04-26 19:03 | 40.65113 | 17.95566 | 208 ft | 151 kts | 316° |
| 2026-04-26 19:03 | 40.65876 | 17.94648 | 50 ft | 149 kts | 316° |
| 2026-04-26 19:04 | 40.66538 | 17.93836 | 35 ft | 90 kts | 317° |
| 2026-04-26 19:04 | 40.66727 | 17.93615 | 34 ft | 8 kts | 341° |
| 2026-04-26 19:04 | 40.66753 | 17.93616 | 34 ft | 3 kts | 11° |
| 2026-04-26 19:04 | 40.66768 | 17.93626 | 35 ft | 3 kts | 35° |
| 2026-04-26 19:05 | 40.66758 | 17.93857 | 36 ft | 17 kts | 136° |
| 2026-04-26 19:05 | 40.66654 | 17.93973 | 36 ft | 22 kts | 141° |
| 2026-04-26 19:05 | 40.66539 | 17.94115 | 36 ft | 23 kts | 134° |
| 2026-04-26 19:06 | 40.66424 | 17.94272 | 35 ft | 24 kts | 131° |
| 2026-04-26 19:06 | 40.66302 | 17.94423 | 34 ft | 25 kts | 141° |
| 2026-04-26 19:06 | 40.66172 | 17.94572 | 34 ft | 25 kts | 137° |
| 2026-04-26 19:06 | 40.66054 | 17.94700 | 33 ft | 16 kts | 167° |
| 2026-04-26 19:07 | 40.65986 | 17.94650 | 33 ft | 10 kts | 236° |
| 2026-04-26 19:07 | 40.65946 | 17.94573 | 33 ft | 14 kts | 236° |
| 2026-04-26 19:07 | 40.65873 | 17.94436 | 34 ft | 23 kts | 229° |
| 2026-04-26 19:07 | 40.65782 | 17.94285 | 37 ft | 19 kts | 233° |
| 2026-04-26 19:08 | 40.65713 | 17.94162 | 38 ft | 14 kts | 234° |
| 2026-04-26 19:08 | 40.65665 | 17.94079 | 42 ft | 7 kts | 232° |
| 2026-04-26 19:08 | 40.65659 | 17.94065 | 42 ft | 0 kts | 242° |
| 2026-04-26 19:08 | 40.65656 | 17.94053 | 42 ft | 0 kts | 257° |
| 2026-04-26 19:09 | 40.65640 | 17.94012 | 43 ft | 8 kts | 234° |
| 2026-04-26 19:09 | 40.65613 | 17.93969 | 44 ft | 6 kts | 230° |
| 2026-04-26 19:09 | 40.65599 | 17.93859 | 43 ft | 14 kts | 289° |
| 2026-04-26 19:09 | 40.65586 | 17.93825 | 46 ft | 0 kts | 182° |
| 2026-04-26 19:10 | 40.65580 | 17.93826 | 45 ft | 2 kts | 172° |
| 2026-04-26 19:10 | 40.65548 | 17.93852 | 46 ft | 9 kts | 127° |
| 2026-04-26 19:10 | 40.65578 | 17.93930 | 45 ft | 18 kts | 53° |
| 2026-04-26 19:10 | 40.65651 | 17.94041 | 42 ft | 8 kts | 17° |
| 2026-04-26 19:11 | 40.65685 | 17.94024 | 42 ft | 5 kts | 323° |
| 2026-04-26 19:11 | 40.65706 | 17.94001 | 41 ft | 3 kts | 321° |
| 2026-04-26 19:11 | 40.65719 | 17.93987 | 41 ft | 1 kts | 320° |
| 2026-04-26 19:11 | 40.65720 | 17.93986 | 41 ft | 0 kts | 320° |
| 2026-04-26 19:12 | 40.65721 | 17.93985 | 41 ft | 0 kts | 320° |